Time,TemperatureF,DewpointF,PressureIn,WindDirection,WindDirectionDegrees,WindSpeedMPH,WindSpeedGustMPH,Humidity,HourlyPrecipIn,Conditions,Clouds,dailyrainin,SoftwareType,DateUTC
2013-05-24 00:01:00,47.7,40.5,29.68,WNW,292,6.3,6.3,76,0.00,,---,0.00,VWS V14.01,2013-05-24 07:01:00,
2013-05-24 00:06:00,47.8,40.7,29.68,WNW,282,3.1,3.1,76,0.00,,---,0.00,VWS V14.01,2013-05-24 07:06:00,
2013-05-24 00:11:00,47.8,40.7,29.68,WNW,298,7.6,7.6,76,0.00,,---,0.00,VWS V14.01,2013-05-24 07:11:00,
2013-05-24 00:16:00,47.8,41.0,29.68,West,259,6.3,6.3,77,0.00,,---,0.00,VWS V14.01,2013-05-24 07:16:00,
2013-05-24 00:21:00,47.8,41.0,29.68,WNW,288,2.7,6.3,77,0.00,,---,0.00,VWS V14.01,2013-05-24 07:21:00,
2013-05-24 00:26:00,47.8,41.0,29.68,WNW,293,6.3,6.3,77,0.04,,---,0.04,VWS V14.01,2013-05-24 07:26:00,
2013-05-24 00:31:00,47.8,41.0,29.68,WSW,245,6.3,6.3,77,0.04,,---,0.04,VWS V14.01,2013-05-24 07:31:00,
2013-05-24 00:36:00,47.8,41.0,29.68,WNW,285,5.4,8.7,77,0.04,,---,0.04,VWS V14.01,2013-05-24 07:36:00,
2013-05-24 00:41:00,47.7,40.8,29.68,WNW,285,5.8,8.1,77,0.04,,---,0.04,VWS V14.01,2013-05-24 07:41:00,
2013-05-24 00:46:00,47.7,40.8,29.68,West,265,5.8,8.7,77,0.04,,---,0.04,VWS V14.01,2013-05-24 07:46:00,
2013-05-24 00:51:00,47.7,40.8,29.68,West,272,8.7,8.7,77,0.04,,---,0.04,VWS V14.01,2013-05-24 07:51:00,
2013-05-24 00:56:00,47.7,40.8,29.68,WNW,287,10.5,10.5,77,0.04,,---,0.04,VWS V14.01,2013-05-24 07:56:00,
2013-05-24 01:01:00,47.7,40.8,29.68,West,269,5.8,6.3,77,0.04,,---,0.04,VWS V14.01,2013-05-24 08:01:00,
2013-05-24 01:06:00,47.7,40.8,29.68,West,263,8.1,8.1,77,0.04,,---,0.04,VWS V14.01,2013-05-24 08:06:00,
2013-05-24 01:11:00,47.7,40.8,29.68,WNW,289,3.1,6.3,77,0.04,,---,0.04,VWS V14.01,2013-05-24 08:11:00,
2013-05-24 01:16:00,47.5,40.6,29.68,West,275,10.1,11.0,77,0.08,,---,0.08,VWS V14.01,2013-05-24 08:16:00,
2013-05-24 01:21:00,47.5,40.6,29.68,WSW,255,6.3,10.1,77,0.08,,---,0.08,VWS V14.01,2013-05-24 08:21:00,
2013-05-24 01:26:00,47.5,40.6,29.68,West,277,3.1,7.2,77,0.04,,---,0.08,VWS V14.01,2013-05-24 08:26:00,
2013-05-24 01:31:00,47.5,40.6,29.68,West,265,5.8,8.1,77,0.04,,---,0.08,VWS V14.01,2013-05-24 08:31:00,
2013-05-24 01:36:00,47.5,40.6,29.68,WNW,303,9.6,9.6,77,0.04,,---,0.08,VWS V14.01,2013-05-24 08:36:00,
2013-05-24 01:41:00,47.3,40.5,29.68,WNW,294,6.3,8.1,77,0.04,,---,0.08,VWS V14.01,2013-05-24 08:41:00,
2013-05-24 01:46:00,47.3,40.5,29.68,WSW,258,8.1,8.7,77,0.04,,---,0.08,VWS V14.01,2013-05-24 08:46:00,
2013-05-24 01:51:00,47.3,40.5,29.68,WNW,303,5.4,5.4,77,0.04,,---,0.08,VWS V14.01,2013-05-24 08:51:00,
2013-05-24 01:56:00,47.3,40.5,29.68,WNW,283,11.0,11.0,77,0.04,,---,0.08,VWS V14.01,2013-05-24 08:56:00,
2013-05-24 02:01:00,47.3,40.5,29.68,West,280,8.1,8.1,77,0.04,,---,0.08,VWS V14.01,2013-05-24 09:01:00,
2013-05-24 02:07:00,47.5,40.6,29.68,West,260,10.1,10.1,77,0.04,,---,0.08,VWS V14.01,2013-05-24 09:07:00,
2013-05-24 02:12:00,47.5,40.6,29.68,West,273,8.7,8.7,77,0.04,,---,0.08,VWS V14.01,2013-05-24 09:12:00,
2013-05-24 02:17:00,47.5,40.6,29.68,WNW,289,10.5,10.5,77,0.00,,---,0.08,VWS V14.01,2013-05-24 09:17:00,
2013-05-24 02:22:00,47.5,40.6,29.68,WNW,300,5.4,8.3,77,0.00,,---,0.08,VWS V14.01,2013-05-24 09:22:00,
2013-05-24 02:27:00,47.5,40.6,29.68,WNW,284,5.8,6.7,77,0.00,,---,0.08,VWS V14.01,2013-05-24 09:27:00,
2013-05-24 02:32:00,47.5,40.6,29.68,West,261,6.3,8.3,77,0.00,,---,0.08,VWS V14.01,2013-05-24 09:32:00,
2013-05-24 02:37:00,47.5,40.6,29.68,West,279,5.4,6.3,77,0.00,,---,0.08,VWS V14.01,2013-05-24 09:37:00,
2013-05-24 02:42:00,47.5,40.6,29.68,West,277,4.0,4.0,77,0.00,,---,0.08,VWS V14.01,2013-05-24 09:42:00,
2013-05-24 02:47:00,47.5,40.6,29.68,WNW,292,6.3,7.6,77,0.00,,---,0.08,VWS V14.01,2013-05-24 09:47:00,
2013-05-24 02:52:00,47.5,40.6,29.68,WNW,287,7.6,8.3,77,0.00,,---,0.08,VWS V14.01,2013-05-24 09:52:00,
2013-05-24 02:57:00,47.3,40.8,29.68,West,267,8.3,9.6,78,0.00,,---,0.08,VWS V14.01,2013-05-24 09:57:00,
2013-05-24 03:02:00,47.5,41.0,29.68,WNW,283,7.6,7.6,78,0.00,,---,0.08,VWS V14.01,2013-05-24 10:02:00,
2013-05-24 03:07:00,47.5,41.0,29.68,WNW,291,7.6,8.7,78,0.00,,---,0.08,VWS V14.01,2013-05-24 10:07:00,
2013-05-24 03:12:00,47.5,41.0,29.68,WNW,291,5.4,5.8,78,0.00,,---,0.08,VWS V14.01,2013-05-24 10:12:00,
2013-05-24 03:17:00,47.5,41.0,29.68,WNW,282,5.4,6.7,78,0.00,,---,0.08,VWS V14.01,2013-05-24 10:17:00,
2013-05-24 03:22:00,47.5,41.0,29.68,West,277,8.1,8.1,78,0.00,,---,0.08,VWS V14.01,2013-05-24 10:22:00,
2013-05-24 03:27:00,47.3,40.8,29.68,West,279,6.3,7.6,78,0.00,,---,0.08,VWS V14.01,2013-05-24 10:27:00,
2013-05-24 03:32:00,47.3,40.8,29.68,WNW,284,5.4,8.1,78,0.00,,---,0.08,VWS V14.01,2013-05-24 10:32:00,
2013-05-24 03:37:00,47.3,40.8,29.68,WNW,287,7.2,7.2,78,0.00,,---,0.08,VWS V14.01,2013-05-24 10:37:00,
2013-05-24 03:42:00,47.3,40.8,29.68,West,281,5.4,7.2,78,0.00,,---,0.08,VWS V14.01,2013-05-24 10:42:00,
2013-05-24 03:47:00,47.3,40.8,29.68,WNW,285,5.8,6.3,78,0.00,,---,0.08,VWS V14.01,2013-05-24 10:47:00,
2013-05-24 03:52:00,47.3,40.8,29.68,WNW,290,8.1,8.1,78,0.00,,---,0.08,VWS V14.01,2013-05-24 10:52:00,
2013-05-24 03:57:00,47.3,40.8,29.68,West,281,10.1,11.0,78,0.00,,---,0.08,VWS V14.01,2013-05-24 10:57:00,
2013-05-24 04:02:00,47.3,40.8,29.68,WSW,258,6.3,10.5,78,0.00,,---,0.08,VWS V14.01,2013-05-24 11:02:00,
2013-05-24 04:07:00,47.3,40.8,29.68,WNW,291,8.1,8.1,78,0.00,,---,0.08,VWS V14.01,2013-05-24 11:07:00,
2013-05-24 04:12:00,47.3,40.8,29.68,West,260,5.4,6.3,78,0.00,,---,0.08,VWS V14.01,2013-05-24 11:12:00,
2013-05-24 04:17:00,47.3,40.8,29.68,West,274,6.3,8.1,78,0.00,,---,0.08,VWS V14.01,2013-05-24 11:17:00,
2013-05-24 04:22:00,47.3,40.8,29.68,WNW,290,6.3,7.6,78,0.00,,---,0.08,VWS V14.01,2013-05-24 11:22:00,
2013-05-24 04:27:00,47.3,40.8,29.68,West,273,8.7,8.7,78,0.00,,---,0.08,VWS V14.01,2013-05-24 11:27:00,
2013-05-24 04:32:00,47.3,40.8,29.68,West,275,5.4,5.8,78,0.00,,---,0.08,VWS V14.01,2013-05-24 11:32:00,
2013-05-24 04:37:00,47.3,40.8,29.68,WNW,282,6.3,8.1,78,0.00,,---,0.08,VWS V14.01,2013-05-24 11:37:00,
2013-05-24 04:42:00,47.3,40.8,29.68,WNW,287,6.3,6.3,78,0.00,,---,0.08,VWS V14.01,2013-05-24 11:42:00,
2013-05-24 04:47:00,47.3,40.8,29.68,West,278,4.9,4.9,78,0.00,,---,0.08,VWS V14.01,2013-05-24 11:47:00,
2013-05-24 04:52:00,47.3,40.8,29.68,WNW,291,7.2,8.1,78,0.00,,---,0.08,VWS V14.01,2013-05-24 11:52:00,
2013-05-24 04:57:00,47.1,40.6,29.68,West,271,8.3,8.3,78,0.00,,---,0.08,VWS V14.01,2013-05-24 11:57:00,
2013-05-24 05:02:00,47.1,40.6,29.68,West,278,10.5,10.5,78,0.00,,---,0.08,VWS V14.01,2013-05-24 12:02:00,
2013-05-24 05:07:00,47.3,40.8,29.68,West,275,7.6,7.6,78,0.00,,---,0.08,VWS V14.01,2013-05-24 12:07:00,
2013-05-24 05:12:00,47.1,40.6,29.68,West,277,7.6,7.6,78,0.00,,---,0.08,VWS V14.01,2013-05-24 12:12:00,
2013-05-24 05:17:00,47.1,40.6,29.68,West,266,8.1,11.0,78,0.00,,---,0.08,VWS V14.01,2013-05-24 12:17:00,
2013-05-24 05:22:00,46.9,40.5,29.68,West,260,7.6,8.7,78,0.00,,---,0.08,VWS V14.01,2013-05-24 12:22:00,
2013-05-24 05:27:00,46.8,40.3,29.68,WSW,248,5.4,6.3,78,0.00,,---,0.08,VWS V14.01,2013-05-24 12:27:00,
2013-05-24 05:32:00,46.6,40.1,29.68,WSW,257,6.3,8.7,78,0.00,,---,0.08,VWS V14.01,2013-05-24 12:32:00,
2013-05-24 05:37:00,46.6,40.1,29.68,WSW,238,5.4,5.4,78,0.00,,---,0.08,VWS V14.01,2013-05-24 12:37:00,
2013-05-24 05:42:00,46.6,40.1,29.68,WSW,254,6.3,6.3,78,0.00,,---,0.08,VWS V14.01,2013-05-24 12:42:00,
2013-05-24 05:47:00,46.8,40.3,29.68,West,273,6.3,8.3,78,0.00,,---,0.08,VWS V14.01,2013-05-24 12:47:00,
2013-05-24 05:52:00,46.8,40.3,29.68,WNW,284,7.6,7.6,78,0.00,,---,0.08,VWS V14.01,2013-05-24 12:52:00,
2013-05-24 05:57:00,46.8,40.6,29.68,WNW,284,8.1,8.1,79,0.00,,---,0.08,VWS V14.01,2013-05-24 12:57:00,
2013-05-24 06:02:00,46.8,40.6,29.68,WNW,284,6.3,6.3,79,0.00,,---,0.08,VWS V14.01,2013-05-24 13:02:00,
2013-05-24 06:07:00,46.8,40.6,29.68,West,273,5.8,5.8,79,0.00,,---,0.08,VWS V14.01,2013-05-24 13:07:00,
2013-05-24 06:12:00,46.8,40.6,29.68,West,274,4.0,5.8,79,0.00,,---,0.08,VWS V14.01,2013-05-24 13:12:00,
2013-05-24 06:17:00,46.8,40.6,29.68,West,277,6.3,6.3,79,0.00,,---,0.08,VWS V14.01,2013-05-24 13:17:00,
2013-05-24 06:22:00,46.6,40.4,29.68,West,270,7.6,7.6,79,0.00,,---,0.08,VWS V14.01,2013-05-24 13:22:00,
2013-05-24 06:27:00,46.6,40.4,29.68,West,267,5.4,6.3,79,0.00,,---,0.08,VWS V14.01,2013-05-24 13:27:00,
2013-05-24 06:32:00,46.6,40.4,29.68,West,279,4.0,6.3,79,0.00,,---,0.08,VWS V14.01,2013-05-24 13:32:00,
2013-05-24 06:37:00,46.8,40.6,29.68,West,259,5.8,5.8,79,0.00,,---,0.08,VWS V14.01,2013-05-24 13:37:00,
2013-05-24 06:42:00,46.8,40.6,29.68,West,281,7.6,7.6,79,0.00,,---,0.08,VWS V14.01,2013-05-24 13:42:00,
2013-05-24 06:47:00,46.8,40.6,29.68,West,274,4.9,5.8,79,0.00,,---,0.08,VWS V14.01,2013-05-24 13:47:00,
2013-05-24 06:52:00,46.9,40.8,29.68,WSW,256,7.6,7.6,79,0.00,,---,0.08,VWS V14.01,2013-05-24 13:52:00,
2013-05-24 06:57:00,46.9,40.8,29.68,West,277,8.7,8.7,79,0.00,,---,0.08,VWS V14.01,2013-05-24 13:57:00,
2013-05-24 07:02:00,46.9,40.8,29.68,SW,225,6.3,7.6,79,0.00,,---,0.08,VWS V14.01,2013-05-24 14:02:00,
2013-05-24 07:07:00,46.9,40.8,29.68,SW,233,8.3,8.7,79,0.00,,---,0.08,VWS V14.01,2013-05-24 14:07:00,
2013-05-24 07:12:00,47.1,41.0,29.68,WNW,282,8.7,8.7,79,0.00,,---,0.08,VWS V14.01,2013-05-24 14:12:00,
2013-05-24 07:17:00,46.9,40.8,29.68,WNW,286,8.7,8.7,79,0.00,,---,0.08,VWS V14.01,2013-05-24 14:17:00,
2013-05-24 07:22:00,47.3,41.1,29.68,West,267,5.8,7.6,79,0.00,,---,0.08,VWS V14.01,2013-05-24 14:22:00,
2013-05-24 07:27:00,47.7,40.8,29.68,West,262,6.3,10.1,77,0.00,,---,0.08,VWS V14.01,2013-05-24 14:27:00,
2013-05-24 07:32:00,47.7,40.1,29.68,West,269,8.7,8.7,75,0.00,,---,0.08,VWS V14.01,2013-05-24 14:32:00,
2013-05-24 07:37:00,47.5,37.1,29.68,SW,226,6.7,8.3,67,0.00,,---,0.08,VWS V14.01,2013-05-24 14:37:00,
2013-05-24 07:42:00,48.2,32.3,29.68,WSW,243,7.6,7.6,54,0.00,,---,0.08,VWS V14.01,2013-05-24 14:42:00,
2013-05-24 07:47:00,49.1,31.8,29.68,WNW,288,6.3,8.1,51,0.00,,---,0.08,VWS V14.01,2013-05-24 14:47:00,
2013-05-24 07:52:00,48.7,28.9,29.71,WNW,285,11.0,11.0,46,0.00,,---,0.08,VWS V14.01,2013-05-24 14:52:00,
2013-05-24 07:57:00,48.7,27.8,29.71,West,259,10.5,11.0,44,0.00,,---,0.08,VWS V14.01,2013-05-24 14:57:00,
2013-05-24 08:02:00,48.6,28.7,29.71,West,260,10.5,10.5,46,0.00,,---,0.08,VWS V14.01,2013-05-24 15:02:00,
2013-05-24 08:07:00,48.7,27.8,29.71,WNW,284,7.2,10.5,44,0.00,,---,0.08,VWS V14.01,2013-05-24 15:07:00,
2013-05-24 08:12:00,49.1,27.6,29.71,West,264,10.1,11.0,43,0.00,,---,0.08,VWS V14.01,2013-05-24 15:12:00,
2013-05-24 08:17:00,49.3,28.3,29.71,WSW,254,10.1,11.0,44,0.00,,---,0.08,VWS V14.01,2013-05-24 15:17:00,
2013-05-24 08:22:00,50.4,29.3,29.71,West,269,8.1,8.1,44,0.00,,---,0.08,VWS V14.01,2013-05-24 15:22:00,
2013-05-24 08:27:00,49.8,26.5,29.71,West,271,8.7,12.8,40,0.00,,---,0.08,VWS V14.01,2013-05-24 15:27:00,
2013-05-24 08:32:00,49.8,26.5,29.71,WSW,258,10.1,12.8,40,0.00,,---,0.08,VWS V14.01,2013-05-24 15:32:00,
2013-05-24 08:47:00,48.9,25.7,29.74,SW,232,10.5,10.5,40,0.00,,---,0.08,VWS V14.01,2013-05-24 15:47:00,
2013-05-24 08:52:00,49.3,26.6,29.74,WSW,240,5.8,9.6,41,0.00,,---,0.08,VWS V14.01,2013-05-24 15:52:00,
2013-05-24 08:57:00,49.3,25.4,29.74,SW,216,8.1,10.5,39,0.00,,---,0.08,VWS V14.01,2013-05-24 15:57:00,
2013-05-24 09:02:00,50.0,25.4,29.71,WSW,254,7.6,11.0,38,0.00,,---,0.08,VWS V14.01,2013-05-24 16:02:00,
2013-05-24 09:07:00,49.8,25.2,29.71,West,263,11.0,12.3,38,0.00,,---,0.08,VWS V14.01,2013-05-24 16:07:00,
2013-05-24 09:12:00,50.7,26.0,29.71,WNW,289,8.7,10.1,38,0.00,,---,0.08,VWS V14.01,2013-05-24 16:12:00,
2013-05-24 09:17:00,50.9,26.2,29.74,WSW,255,5.4,8.3,38,0.00,,---,0.08,VWS V14.01,2013-05-24 16:17:00,
2013-05-24 09:22:00,50.0,24.8,29.74,WSW,257,13.6,13.6,37,0.00,,---,0.08,VWS V14.01,2013-05-24 16:22:00,
2013-05-24 09:27:00,49.8,25.2,29.74,WSW,238,10.5,13.2,38,0.00,,---,0.08,VWS V14.01,2013-05-24 16:27:00,
2013-05-24 09:32:00,49.8,26.5,29.74,WSW,252,7.6,7.6,40,0.00,,---,0.08,VWS V14.01,2013-05-24 16:32:00,
2013-05-24 09:37:00,49.8,25.9,29.74,West,280,8.7,12.8,39,0.00,,---,0.08,VWS V14.01,2013-05-24 16:37:00,
2013-05-24 09:42:00,50.7,26.7,29.74,WSW,257,3.6,5.8,39,0.00,,---,0.08,VWS V14.01,2013-05-24 16:42:00,
2013-05-24 09:47:00,50.4,25.7,29.74,WSW,255,8.7,8.7,38,0.00,,---,0.08,VWS V14.01,2013-05-24 16:47:00,
2013-05-24 09:52:00,50.7,24.8,29.74,WSW,253,8.7,12.8,36,0.00,,---,0.08,VWS V14.01,2013-05-24 16:52:00,
2013-05-24 09:57:00,51.1,25.7,29.74,WSW,250,6.7,8.7,37,0.00,,---,0.08,VWS V14.01,2013-05-24 16:57:00,
2013-05-24 10:02:00,51.8,26.4,29.74,WNW,284,7.6,10.5,37,0.00,,---,0.08,VWS V14.01,2013-05-24 17:02:00,
2013-05-24 10:07:00,50.9,25.6,29.74,SW,216,7.6,7.6,37,0.00,,---,0.08,VWS V14.01,2013-05-24 17:07:00,
2013-05-24 10:12:00,50.4,28.2,29.74,West,262,12.8,12.8,42,0.00,,---,0.08,VWS V14.01,2013-05-24 17:12:00,
2013-05-24 10:17:00,50.9,28.6,29.74,West,281,6.3,8.3,42,0.00,,---,0.08,VWS V14.01,2013-05-24 17:17:00,
2013-05-24 10:22:00,50.5,27.7,29.74,WNW,287,10.5,10.5,41,0.00,,---,0.08,VWS V14.01,2013-05-24 17:22:00,
2013-05-24 10:27:00,50.4,29.3,29.74,West,263,6.3,8.1,44,0.00,,---,0.08,VWS V14.01,2013-05-24 17:27:00,
2013-05-24 10:32:00,50.0,30.0,29.74,WSW,253,6.3,10.1,46,0.00,,---,0.08,VWS V14.01,2013-05-24 17:32:00,
2013-05-24 10:38:00,49.8,28.8,29.74,WNW,290,8.7,8.7,44,0.00,,---,0.08,VWS V14.01,2013-05-24 17:38:00,
2013-05-24 10:43:00,50.9,31.4,29.74,West,268,4.0,10.1,47,0.00,,---,0.08,VWS V14.01,2013-05-24 17:43:00,
2013-05-24 10:48:00,50.0,25.4,29.74,WSW,241,15.0,15.0,38,0.00,,---,0.08,VWS V14.01,2013-05-24 17:48:00,
2013-05-24 10:53:00,50.5,30.5,29.74,WNW,296,8.7,8.7,46,0.00,,---,0.08,VWS V14.01,2013-05-24 17:53:00,
2013-05-24 10:58:00,50.7,29.6,29.74,WNW,291,8.3,11.0,44,0.00,,---,0.08,VWS V14.01,2013-05-24 17:58:00,
2013-05-24 11:03:00,50.2,28.0,29.74,West,265,10.1,16.3,42,0.00,,---,0.08,VWS V14.01,2013-05-24 18:03:00,
2013-05-24 11:08:00,51.1,28.8,29.74,West,268,8.1,10.1,42,0.00,,---,0.08,VWS V14.01,2013-05-24 18:08:00,
2013-05-24 11:13:00,51.4,27.3,29.74,WSW,250,8.3,10.1,39,0.00,,---,0.08,VWS V14.01,2013-05-24 18:13:00,
2013-05-24 11:18:00,52.5,28.3,29.74,WNW,302,7.6,9.2,39,0.00,,---,0.08,VWS V14.01,2013-05-24 18:18:00,
2013-05-24 11:23:00,52.3,27.5,29.74,WNW,301,9.6,12.3,38,0.00,,---,0.08,VWS V14.01,2013-05-24 18:23:00,
2013-05-24 11:28:00,51.1,28.2,29.74,WNW,292,10.5,12.8,41,0.00,,---,0.08,VWS V14.01,2013-05-24 18:28:00,
2013-05-24 11:33:00,51.4,30.3,29.74,West,264,10.1,10.5,44,0.00,,---,0.08,VWS V14.01,2013-05-24 18:33:00,
2013-05-24 11:38:00,51.1,29.4,29.74,WNW,303,8.1,12.8,43,0.00,,---,0.08,VWS V14.01,2013-05-24 18:38:00,
2013-05-24 11:43:00,51.1,30.0,29.74,WSW,257,5.4,8.7,44,0.00,,---,0.08,VWS V14.01,2013-05-24 18:43:00,
2013-05-24 11:48:00,51.8,29.5,29.77,West,259,10.5,10.5,42,0.00,,---,0.08,VWS V14.01,2013-05-24 18:48:00,
2013-05-24 11:53:00,52.0,27.8,29.77,WNW,282,10.1,11.0,39,0.00,,---,0.08,VWS V14.01,2013-05-24 18:53:00,
2013-05-24 11:58:00,52.2,30.9,29.77,WSW,243,5.4,8.1,44,0.00,,---,0.08,VWS V14.01,2013-05-24 18:58:00,
2013-05-24 12:03:00,51.4,30.8,29.74,SSW,211,6.3,8.1,45,0.00,,---,0.08,VWS V14.01,2013-05-24 19:03:00,
2013-05-24 12:08:00,51.1,26.4,29.74,West,267,11.0,11.0,38,0.00,,---,0.08,VWS V14.01,2013-05-24 19:08:00,
2013-05-24 12:13:00,52.5,27.0,29.74,West,263,10.5,12.8,37,0.00,,---,0.08,VWS V14.01,2013-05-24 19:13:00,
2013-05-24 12:18:00,54.9,28.4,29.74,WSW,248,8.3,9.6,36,0.00,,---,0.08,VWS V14.01,2013-05-24 19:18:00,
2013-05-24 12:23:00,54.5,23.7,29.74,SSW,209,11.0,11.0,30,0.00,,---,0.08,VWS V14.01,2013-05-24 19:23:00,
2013-05-24 12:28:00,53.8,23.1,29.74,WSW,237,8.3,10.5,30,0.00,,---,0.08,VWS V14.01,2013-05-24 19:28:00,
2013-05-24 12:33:00,52.9,26.7,29.74,WSW,254,13.2,13.2,36,0.00,,---,0.08,VWS V14.01,2013-05-24 19:33:00,
2013-05-24 12:38:00,51.6,27.5,29.74,WNW,294,8.7,10.1,39,0.00,,---,0.08,VWS V14.01,2013-05-24 19:38:00,
2013-05-24 12:43:00,51.3,29.0,29.74,WNW,288,6.3,12.8,42,0.00,,---,0.08,VWS V14.01,2013-05-24 19:43:00,
2013-05-24 12:48:00,52.2,31.5,29.77,West,259,4.0,8.1,45,0.00,,---,0.08,VWS V14.01,2013-05-24 19:48:00,
2013-05-24 12:53:00,53.1,28.1,29.77,WNW,286,7.6,8.7,38,0.00,,---,0.08,VWS V14.01,2013-05-24 19:53:00,
2013-05-24 12:58:00,54.1,27.8,29.77,SW,216,12.8,12.8,36,0.00,,---,0.08,VWS V14.01,2013-05-24 19:58:00,
2013-05-24 13:03:00,57.9,25.0,29.77,West,269,10.1,11.0,28,0.00,,---,0.08,VWS V14.01,2013-05-24 20:03:00,
2013-05-24 13:08:00,55.2,26.6,29.77,WSW,252,8.1,11.0,33,0.00,,---,0.08,VWS V14.01,2013-05-24 20:08:00,
2013-05-24 13:13:00,57.6,23.0,29.74,SW,229,8.7,8.7,26,0.00,,---,0.08,VWS V14.01,2013-05-24 20:13:00,
2013-05-24 13:18:00,55.2,24.4,29.74,West,264,9.6,11.0,30,0.00,,---,0.08,VWS V14.01,2013-05-24 20:18:00,
2013-05-24 13:23:00,53.4,27.8,29.74,WSW,244,8.1,14.1,37,0.00,,---,0.08,VWS V14.01,2013-05-24 20:23:00,
2013-05-24 13:28:00,55.8,24.8,29.74,WNW,291,5.8,10.1,30,0.00,,---,0.08,VWS V14.01,2013-05-24 20:28:00,
2013-05-24 13:33:00,58.6,23.9,29.74,WNW,301,10.1,14.5,26,0.00,,---,0.08,VWS V14.01,2013-05-24 20:33:00,
2013-05-24 13:38:00,57.9,23.3,29.74,WSW,243,8.7,11.0,26,0.00,,---,0.08,VWS V14.01,2013-05-24 20:38:00,
2013-05-24 13:43:00,55.8,22.3,29.74,WSW,243,11.0,11.0,27,0.00,,---,0.08,VWS V14.01,2013-05-24 20:43:00,
2013-05-24 13:48:00,55.9,28.7,29.74,WSW,240,12.8,12.8,35,0.00,,---,0.08,VWS V14.01,2013-05-24 20:48:00,
2013-05-24 13:53:00,57.6,22.0,29.74,West,265,14.5,14.5,25,0.00,,---,0.08,VWS V14.01,2013-05-24 20:53:00,
2013-05-24 13:58:00,56.3,21.9,29.74,SW,226,13.2,13.2,26,0.00,,---,0.08,VWS V14.01,2013-05-24 20:58:00,
2013-05-24 14:03:00,56.8,22.3,29.74,WSW,250,10.5,13.2,26,0.00,,---,0.08,VWS V14.01,2013-05-24 21:03:00,
2013-05-24 14:08:00,59.0,22.3,29.74,WNW,284,8.7,12.3,24,0.00,,---,0.08,VWS V14.01,2013-05-24 21:08:00,
2013-05-24 14:13:00,58.8,22.1,29.74,WSW,249,7.6,10.1,24,0.00,,---,0.08,VWS V14.01,2013-05-24 21:13:00,
2013-05-24 14:18:00,57.2,22.6,29.74,WSW,255,7.6,7.6,26,0.00,,---,0.08,VWS V14.01,2013-05-24 21:18:00,
2013-05-24 14:23:00,56.7,22.2,29.74,SW,214,5.4,8.1,26,0.00,,---,0.08,VWS V14.01,2013-05-24 21:23:00,
2013-05-24 14:28:00,58.1,23.4,29.74,WNW,289,8.3,8.3,26,0.00,,---,0.08,VWS V14.01,2013-05-24 21:28:00,
2013-05-24 14:33:00,60.8,20.6,29.74,West,275,8.3,8.3,21,0.00,,---,0.08,VWS V14.01,2013-05-24 21:33:00,
2013-05-24 14:38:00,61.2,18.6,29.74,West,266,6.3,10.1,19,0.00,,---,0.08,VWS V14.01,2013-05-24 21:38:00,
2013-05-24 14:43:00,61.3,18.8,29.74,NW,314,8.7,8.7,19,0.00,,---,0.08,VWS V14.01,2013-05-24 21:43:00,
2013-05-24 14:48:00,63.7,16.7,29.74,SSW,213,10.5,12.8,16,0.00,,---,0.08,VWS V14.01,2013-05-24 21:48:00,
2013-05-24 14:53:00,60.4,18.0,29.74,WNW,286,8.1,8.1,19,0.00,,---,0.08,VWS V14.01,2013-05-24 21:53:00,
2013-05-24 14:58:00,60.4,18.0,29.74,NW,304,11.0,11.0,19,0.00,,---,0.08,VWS V14.01,2013-05-24 21:58:00,
2013-05-24 15:03:00,61.2,14.6,29.74,West,259,5.4,9.6,16,0.00,,---,0.08,VWS V14.01,2013-05-24 22:03:00,
2013-05-24 15:08:00,61.0,14.5,29.74,WNW,292,10.5,10.5,16,0.00,,---,0.08,VWS V14.01,2013-05-24 22:08:00,
2013-05-24 15:13:00,61.5,14.9,29.74,WNW,297,13.2,13.2,16,0.00,,---,0.08,VWS V14.01,2013-05-24 22:13:00,
2013-05-24 15:18:00,61.7,15.1,29.74,NW,316,6.3,8.7,16,0.00,,---,0.08,VWS V14.01,2013-05-24 22:18:00,
2013-05-24 15:23:00,61.0,14.5,29.74,West,280,8.7,11.0,16,0.00,,---,0.08,VWS V14.01,2013-05-24 22:23:00,
2013-05-24 15:28:00,61.5,14.9,29.74,WNW,300,8.7,8.7,16,0.00,,---,0.08,VWS V14.01,2013-05-24 22:28:00,
2013-05-24 15:33:00,60.8,14.4,29.74,WNW,294,11.0,13.2,16,0.00,,---,0.08,VWS V14.01,2013-05-24 22:33:00,
2013-05-24 15:38:00,60.3,21.3,29.74,NW,305,4.9,8.1,22,0.00,,---,0.08,VWS V14.01,2013-05-24 22:38:00,
2013-05-24 15:43:00,58.8,24.0,29.74,WNW,298,3.6,8.3,26,0.00,,---,0.08,VWS V14.01,2013-05-24 22:43:00,
2013-05-24 15:48:00,59.0,24.2,29.74,SW,221,5.4,5.4,26,0.00,,---,0.08,VWS V14.01,2013-05-24 22:48:00,
2013-05-24 15:53:00,60.1,21.1,29.74,WNW,295,8.1,8.3,22,0.00,,---,0.08,VWS V14.01,2013-05-24 22:53:00,
2013-05-24 15:58:00,60.3,17.9,29.74,West,272,8.1,8.1,19,0.00,,---,0.08,VWS V14.01,2013-05-24 22:58:00,
2013-05-24 16:03:00,60.6,15.6,29.74,NNW,342,5.4,8.3,17,0.00,,---,0.08,VWS V14.01,2013-05-24 23:03:00,
2013-05-24 16:08:00,61.0,14.5,29.74,NW,312,8.3,8.3,16,0.00,,---,0.08,VWS V14.01,2013-05-24 23:08:00,
2013-05-24 16:13:00,61.2,14.6,29.74,NW,304,8.1,8.1,16,0.00,,---,0.08,VWS V14.01,2013-05-24 23:13:00,
2013-05-24 16:18:00,61.5,14.9,29.74,WNW,283,10.5,10.5,16,0.00,,---,0.08,VWS V14.01,2013-05-24 23:18:00,
2013-05-24 16:23:00,62.2,15.5,29.74,WNW,300,8.3,8.7,16,0.00,,---,0.08,VWS V14.01,2013-05-24 23:23:00,
2013-05-24 16:28:00,62.8,15.9,29.74,West,281,8.7,8.7,16,0.00,,---,0.08,VWS V14.01,2013-05-24 23:28:00,
2013-05-24 16:33:00,63.7,11.9,29.74,NW,323,8.1,8.1,13,0.00,,---,0.08,VWS V14.01,2013-05-24 23:33:00,
2013-05-24 16:38:00,63.9,12.1,29.74,WNW,284,6.3,8.3,13,0.00,,---,0.08,VWS V14.01,2013-05-24 23:38:00,
2013-05-24 16:43:00,64.2,12.4,29.74,NW,315,5.8,7.6,13,0.00,,---,0.08,VWS V14.01,2013-05-24 23:43:00,
2013-05-24 16:48:00,63.5,11.8,29.74,WNW,300,8.3,8.3,13,0.00,,---,0.08,VWS V14.01,2013-05-24 23:48:00,
2013-05-24 16:53:00,63.3,11.7,29.74,NW,305,5.4,8.3,13,0.00,,---,0.08,VWS V14.01,2013-05-24 23:53:00,
2013-05-24 16:58:00,62.8,11.2,29.74,WNW,293,8.7,11.0,13,0.00,,---,0.08,VWS V14.01,2013-05-24 23:58:00,
2013-05-24 17:03:00,61.9,12.2,29.74,NNW,328,11.0,14.5,14,0.00,,---,0.08,VWS V14.01,2013-05-25 00:03:00,
2013-05-24 17:08:00,60.4,15.4,29.74,NW,322,8.7,10.5,17,0.00,,---,0.08,VWS V14.01,2013-05-25 00:08:00,
2013-05-24 17:13:00,59.5,20.7,29.74,NW,317,8.1,8.1,22,0.00,,---,0.08,VWS V14.01,2013-05-25 00:13:00,
2013-05-24 17:18:00,59.9,23.0,29.74,NW,326,5.8,8.7,24,0.00,,---,0.08,VWS V14.01,2013-05-25 00:18:00,
2013-05-24 17:23:00,59.9,23.0,29.74,NW,317,6.7,6.7,24,0.00,,---,0.08,VWS V14.01,2013-05-25 00:23:00,
2013-05-24 17:28:00,60.1,21.1,29.74,WNW,297,7.6,7.6,22,0.00,,---,0.08,VWS V14.01,2013-05-25 00:28:00,
2013-05-24 17:33:00,60.3,23.4,29.74,NNW,329,3.1,3.1,24,0.00,,---,0.08,VWS V14.01,2013-05-25 00:33:00,
2013-05-24 17:38:00,60.4,23.5,29.74,NW,325,4.0,4.0,24,0.00,,---,0.08,VWS V14.01,2013-05-25 00:38:00,
2013-05-24 17:43:00,59.9,23.0,29.74,NW,321,4.0,6.3,24,0.00,,---,0.08,VWS V14.01,2013-05-25 00:43:00,
2013-05-24 17:48:00,59.9,23.0,29.74,WNW,303,5.8,6.3,24,0.00,,---,0.08,VWS V14.01,2013-05-25 00:48:00,
2013-05-24 17:53:00,59.7,23.9,29.74,NNW,333,3.6,4.0,25,0.00,,---,0.08,VWS V14.01,2013-05-25 00:53:00,
2013-05-24 17:58:00,59.4,23.6,29.74,NW,316,5.8,8.1,25,0.00,,---,0.08,VWS V14.01,2013-05-25 00:58:00,
2013-05-24 18:03:00,59.0,22.3,29.74,NW,314,8.3,8.3,24,0.00,,---,0.08,VWS V14.01,2013-05-25 01:03:00,
2013-05-24 18:08:00,59.0,23.2,29.74,NW,319,6.3,6.3,25,0.00,,---,0.08,VWS V14.01,2013-05-25 01:08:00,
2013-05-24 18:13:00,59.4,23.6,29.74,NNW,334,5.4,5.8,25,0.00,,---,0.08,VWS V14.01,2013-05-25 01:13:00,
2013-05-24 18:18:00,59.2,23.4,29.74,NW,323,6.3,6.3,25,0.00,,---,0.08,VWS V14.01,2013-05-25 01:18:00,
2013-05-24 18:23:00,58.8,23.1,29.74,NW,314,6.3,7.6,25,0.00,,---,0.08,VWS V14.01,2013-05-25 01:23:00,
2013-05-24 18:28:00,58.5,24.6,29.74,NW,320,3.6,4.0,27,0.00,,---,0.08,VWS V14.01,2013-05-25 01:28:00,
2013-05-24 18:33:00,58.3,25.3,29.74,NNW,330,5.4,5.4,28,0.00,,---,0.08,VWS V14.01,2013-05-25 01:33:00,
2013-05-24 18:38:00,57.9,25.0,29.74,NW,318,4.9,6.3,28,0.00,,---,0.08,VWS V14.01,2013-05-25 01:38:00,
2013-05-24 18:43:00,57.7,24.9,29.74,WNW,298,4.0,4.9,28,0.00,,---,0.08,VWS V14.01,2013-05-25 01:43:00,
2013-05-24 18:48:00,57.6,24.7,29.74,WNW,289,3.1,4.0,28,0.00,,---,0.08,VWS V14.01,2013-05-25 01:48:00,
2013-05-24 18:53:00,57.0,24.3,29.74,WNW,282,5.4,6.3,28,0.00,,---,0.08,VWS V14.01,2013-05-25 01:53:00,
2013-05-24 18:58:00,56.8,26.5,29.74,WNW,292,5.4,7.2,31,0.00,,---,0.08,VWS V14.01,2013-05-25 01:58:00,
2013-05-24 19:03:00,56.5,26.2,29.74,WNW,289,3.1,3.6,31,0.00,,---,0.08,VWS V14.01,2013-05-25 02:03:00,
2013-05-24 19:08:00,56.3,26.1,29.74,WNW,292,5.4,8.1,31,0.00,,---,0.08,VWS V14.01,2013-05-25 02:08:00,
2013-05-24 19:13:00,56.1,28.1,29.74,West,281,4.0,4.9,34,0.00,,---,0.08,VWS V14.01,2013-05-25 02:13:00,
2013-05-24 19:18:00,55.9,27.3,29.74,WNW,299,4.0,4.0,33,0.00,,---,0.08,VWS V14.01,2013-05-25 02:18:00,
2013-05-24 19:23:00,55.9,26.5,29.74,West,279,3.1,4.0,32,0.00,,---,0.08,VWS V14.01,2013-05-25 02:23:00,
2013-05-24 19:28:00,55.9,26.5,29.74,West,279,0.0,3.6,32,0.00,,---,0.08,VWS V14.01,2013-05-25 02:28:00,
2013-05-24 19:33:00,55.8,27.1,29.74,West,279,0.0,0.0,33,0.00,,---,0.08,VWS V14.01,2013-05-25 02:33:00,
2013-05-24 19:38:00,55.2,28.1,29.74,West,279,2.7,4.0,35,0.00,,---,0.08,VWS V14.01,2013-05-25 02:38:00,
2013-05-24 19:43:00,54.5,27.4,29.74,West,279,0.0,0.0,35,0.00,,---,0.08,VWS V14.01,2013-05-25 02:43:00,
2013-05-24 19:48:00,54.0,28.3,29.74,West,279,0.0,0.0,37,0.00,,---,0.08,VWS V14.01,2013-05-25 02:48:00,
2013-05-24 19:53:00,53.2,28.3,29.74,West,279,0.0,0.0,38,0.00,,---,0.08,VWS V14.01,2013-05-25 02:53:00,
2013-05-24 19:58:00,52.9,28.6,29.74,West,279,0.0,0.0,39,0.00,,---,0.08,VWS V14.01,2013-05-25 02:58:00,
2013-05-24 20:03:00,52.7,29.1,29.74,West,279,0.0,0.0,40,0.00,,---,0.08,VWS V14.01,2013-05-25 03:03:00,
2013-05-24 20:08:00,52.5,28.9,29.74,West,279,0.0,0.0,40,0.00,,---,0.08,VWS V14.01,2013-05-25 03:08:00,
2013-05-24 20:13:00,52.3,28.8,29.74,West,279,0.0,0.0,40,0.00,,---,0.08,VWS V14.01,2013-05-25 03:13:00,
2013-05-24 20:18:00,52.5,29.5,29.74,West,279,0.0,0.0,41,0.00,,---,0.08,VWS V14.01,2013-05-25 03:18:00,
2013-05-24 20:23:00,52.2,29.8,29.74,West,279,0.0,0.0,42,0.00,,---,0.08,VWS V14.01,2013-05-25 03:23:00,
2013-05-24 20:28:00,52.0,30.2,29.74,West,279,0.0,0.0,43,0.00,,---,0.08,VWS V14.01,2013-05-25 03:28:00,
2013-05-24 20:33:00,52.0,30.2,29.74,West,279,0.0,0.0,43,0.00,,---,0.08,VWS V14.01,2013-05-25 03:33:00,
2013-05-24 20:38:00,52.0,29.6,29.74,West,279,0.0,0.0,42,0.00,,---,0.08,VWS V14.01,2013-05-25 03:38:00,
2013-05-24 20:43:00,51.8,29.5,29.74,West,279,0.0,0.0,42,0.00,,---,0.08,VWS V14.01,2013-05-25 03:43:00,
2013-05-24 20:48:00,51.6,29.9,29.74,West,279,0.0,0.0,43,0.00,,---,0.08,VWS V14.01,2013-05-25 03:48:00,
2013-05-24 20:53:00,51.3,29.5,29.74,West,279,0.0,0.0,43,0.00,,---,0.08,VWS V14.01,2013-05-25 03:53:00,
2013-05-24 20:58:00,50.9,29.8,29.74,West,279,0.0,0.0,44,0.00,,---,0.08,VWS V14.01,2013-05-25 03:58:00,
2013-05-24 21:01:00,50.7,29.6,29.74,West,279,0.0,0.0,44,0.00,,---,0.08,VWS V14.01,2013-05-25 04:01:00,
2013-05-24 21:06:00,50.7,29.6,29.74,West,279,0.0,0.0,44,0.00,,---,0.08,VWS V14.01,2013-05-25 04:06:00,
2013-05-24 21:11:00,50.4,28.7,29.74,West,279,0.0,0.0,43,0.00,,---,0.08,VWS V14.01,2013-05-25 04:11:00,
2013-05-24 21:16:00,50.2,28.6,29.74,West,279,0.0,0.0,43,0.00,,---,0.08,VWS V14.01,2013-05-25 04:16:00,
2013-05-24 21:21:00,50.0,29.0,29.74,West,279,0.0,0.0,44,0.00,,---,0.08,VWS V14.01,2013-05-25 04:21:00,
2013-05-24 21:26:00,49.8,28.8,29.74,West,279,0.0,0.0,44,0.00,,---,0.08,VWS V14.01,2013-05-25 04:26:00,
2013-05-24 21:31:00,50.2,29.1,29.77,West,279,0.0,0.0,44,0.00,,---,0.08,VWS V14.01,2013-05-25 04:31:00,
2013-05-24 21:36:00,50.5,30.0,29.77,West,279,0.0,0.0,45,0.00,,---,0.08,VWS V14.01,2013-05-25 04:36:00,
2013-05-24 21:41:00,50.7,29.6,29.77,West,279,0.0,0.0,44,0.00,,---,0.08,VWS V14.01,2013-05-25 04:41:00,
2013-05-24 21:46:00,50.5,29.5,29.77,West,279,0.0,0.0,44,0.00,,---,0.08,VWS V14.01,2013-05-25 04:46:00,
2013-05-24 21:51:00,50.4,29.8,29.77,West,279,0.0,0.0,45,0.00,,---,0.08,VWS V14.01,2013-05-25 04:51:00,
2013-05-24 21:56:00,50.2,30.2,29.77,West,279,0.0,0.0,46,0.00,,---,0.08,VWS V14.01,2013-05-25 04:56:00,
2013-05-24 22:01:00,50.4,30.4,29.77,West,279,0.0,0.0,46,0.00,,---,0.08,VWS V14.01,2013-05-25 05:01:00,
2013-05-24 22:06:00,50.4,30.4,29.77,West,279,0.0,0.0,46,0.00,,---,0.08,VWS V14.01,2013-05-25 05:06:00,
2013-05-24 22:11:00,50.4,30.4,29.77,West,279,0.0,0.0,46,0.00,,---,0.08,VWS V14.01,2013-05-25 05:11:00,
2013-05-24 22:16:00,50.2,30.2,29.77,West,279,0.0,0.0,46,0.00,,---,0.08,VWS V14.01,2013-05-25 05:16:00,
2013-05-24 22:21:00,50.2,30.2,29.77,West,279,0.0,0.0,46,0.00,,---,0.08,VWS V14.01,2013-05-25 05:21:00,
2013-05-24 22:26:00,50.0,29.5,29.77,West,279,0.0,0.0,45,0.00,,---,0.08,VWS V14.01,2013-05-25 05:26:00,
2013-05-24 22:31:00,49.8,29.9,29.77,West,279,0.0,0.0,46,0.00,,---,0.08,VWS V14.01,2013-05-25 05:31:00,
2013-05-24 22:36:00,49.6,30.2,29.77,West,279,0.0,0.0,47,0.00,,---,0.08,VWS V14.01,2013-05-25 05:36:00,
2013-05-24 22:41:00,49.5,30.6,29.77,West,279,0.0,0.0,48,0.00,,---,0.08,VWS V14.01,2013-05-25 05:41:00,
2013-05-24 22:46:00,49.5,30.6,29.74,West,279,0.0,0.0,48,0.00,,---,0.08,VWS V14.01,2013-05-25 05:46:00,
2013-05-24 22:51:00,49.5,30.6,29.74,West,279,0.0,0.0,48,0.00,,---,0.08,VWS V14.01,2013-05-25 05:51:00,
2013-05-24 22:56:00,49.5,30.6,29.74,West,279,0.0,0.0,48,0.00,,---,0.08,VWS V14.01,2013-05-25 05:56:00,
2013-05-24 23:01:00,49.3,31.0,29.74,West,279,0.0,0.0,49,0.00,,---,0.08,VWS V14.01,2013-05-25 06:01:00,
2013-05-24 23:06:00,49.3,31.5,29.74,West,279,0.0,0.0,50,0.00,,---,0.08,VWS V14.01,2013-05-25 06:06:00,
2013-05-24 23:11:00,49.1,31.8,29.74,West,279,0.0,0.0,51,0.00,,---,0.08,VWS V14.01,2013-05-25 06:11:00,
2013-05-24 23:16:00,49.1,31.8,29.74,West,279,0.0,0.0,51,0.00,,---,0.08,VWS V14.01,2013-05-25 06:16:00,
2013-05-24 23:21:00,49.1,31.8,29.74,West,279,0.0,0.0,51,0.00,,---,0.08,VWS V14.01,2013-05-25 06:21:00,
2013-05-24 23:26:00,49.3,31.9,29.74,West,279,0.0,0.0,51,0.00,,---,0.08,VWS V14.01,2013-05-25 06:26:00,
2013-05-24 23:31:00,49.5,32.1,29.77,West,279,0.0,0.0,51,0.00,,---,0.08,VWS V14.01,2013-05-25 06:31:00,
2013-05-24 23:36:00,49.6,31.8,29.77,West,279,0.0,0.0,50,0.00,,---,0.08,VWS V14.01,2013-05-25 06:36:00,
2013-05-24 23:41:00,49.6,31.8,29.77,West,279,0.0,0.0,50,0.00,,---,0.08,VWS V14.01,2013-05-25 06:41:00,
2013-05-24 23:46:00,49.6,31.3,29.77,West,279,0.0,0.0,49,0.00,,---,0.08,VWS V14.01,2013-05-25 06:46:00,
2013-05-24 23:51:00,49.5,31.1,29.77,West,279,0.0,0.0,49,0.00,,---,0.08,VWS V14.01,2013-05-25 06:51:00,
2013-05-24 23:56:00,49.5,31.1,29.77,West,279,0.0,0.0,49,0.00,,---,0.08,VWS V14.01,2013-05-25 06:56:00,